EFIV

Ivalo Airport

Ivalo, Finland
METAR EFIV 241450Z AUTO 30010KT CAVOK 14/03 Q1010
Observed Flight Rules
Jun-24 @ 14:50 UTC (12 minutes ago) Visual Flight Rules
Wind Visibility Clouds
300° at 10 knots 10,000+ meters
  • Clear skies
Temperatures Readings
Current 14°C / 57°F
Dewpoint 3°C / 37°F
Humidity 48%
Altimeter 29.82" Hg
Pressure 1010 hPa
Elevation 148
METAR EFIV 241450Z AUTO 30010KT CAVOK 14/03 Q1010
Observed Flight Rules
Jun-24 @ 14:50 UTC
(12 minutes ago)
VFR
Wind Visibility
300° at 10 knots 10,000+ meters
Clouds
  • Clear skies
Temperature Dewpoint
14°C / 57°F 3°C / 37°F
Humidity Altimeter Pressure
48% 29.82" Hg 1010 hPa